sensor_id;sensor_type;location;lat;lon;timestamp;P1;durP1;ratioP1;P2;durP2;ratioP2
13202;SDS011;6666;51.626;7.530;2024-01-25T00:00:27;38.95;;;6.35;;
13202;SDS011;6666;51.626;7.530;2024-01-25T00:02:55;34.75;;;7.78;;
13202;SDS011;6666;51.626;7.530;2024-01-25T00:05:24;37.00;;;7.20;;
13202;SDS011;6666;51.626;7.530;2024-01-25T00:07:52;37.47;;;7.40;;
13202;SDS011;6666;51.626;7.530;2024-01-25T00:10:21;38.13;;;7.15;;
13202;SDS011;6666;51.626;7.530;2024-01-25T00:12:49;35.53;;;7.10;;
13202;SDS011;6666;51.626;7.530;2024-01-25T00:15:17;36.92;;;6.55;;
13202;SDS011;6666;51.626;7.530;2024-01-25T00:17:45;29.50;;;6.30;;
13202;SDS011;6666;51.626;7.530;2024-01-25T00:20:14;34.42;;;6.00;;
13202;SDS011;6666;51.626;7.530;2024-01-25T00:22:42;35.45;;;6.40;;
13202;SDS011;6666;51.626;7.530;2024-01-25T00:25:10;39.72;;;7.25;;
13202;SDS011;6666;51.626;7.530;2024-01-25T00:27:40;42.58;;;7.30;;
13202;SDS011;6666;51.626;7.530;2024-01-25T00:30:08;25.85;;;6.20;;
13202;SDS011;6666;51.626;7.530;2024-01-25T00:32:37;39.70;;;6.38;;
13202;SDS011;6666;51.626;7.530;2024-01-25T00:35:06;39.30;;;7.10;;
13202;SDS011;6666;51.626;7.530;2024-01-25T00:37:36;33.50;;;6.95;;
13202;SDS011;6666;51.626;7.530;2024-01-25T00:40:05;31.10;;;5.75;;
13202;SDS011;6666;51.626;7.530;2024-01-25T00:42:34;37.83;;;7.00;;
13202;SDS011;6666;51.626;7.530;2024-01-25T00:45:11;32.40;;;6.50;;
13202;SDS011;6666;51.626;7.530;2024-01-25T00:47:41;26.63;;;6.30;;
13202;SDS011;6666;51.626;7.530;2024-01-25T00:50:10;33.95;;;6.43;;
13202;SDS011;6666;51.626;7.530;2024-01-25T00:52:39;32.07;;;6.10;;
13202;SDS011;6666;51.626;7.530;2024-01-25T00:55:08;34.05;;;6.20;;
13202;SDS011;6666;51.626;7.530;2024-01-25T00:57:38;29.83;;;6.55;;
13202;SDS011;6666;51.626;7.530;2024-01-25T01:00:08;31.90;;;5.83;;
13202;SDS011;6666;51.626;7.530;2024-01-25T01:02:39;34.77;;;6.20;;
13202;SDS011;6666;51.626;7.530;2024-01-25T01:05:10;25.58;;;6.25;;
13202;SDS011;6666;51.626;7.530;2024-01-25T01:07:39;28.80;;;5.20;;
13202;SDS011;6666;51.626;7.530;2024-01-25T01:10:09;30.15;;;5.53;;
13202;SDS011;6666;51.626;7.530;2024-01-25T01:12:37;38.25;;;6.35;;
13202;SDS011;6666;51.626;7.530;2024-01-25T01:15:05;29.70;;;6.10;;
13202;SDS011;6666;51.626;7.530;2024-01-25T01:17:35;26.98;;;6.15;;
13202;SDS011;6666;51.626;7.530;2024-01-25T01:20:04;27.88;;;5.70;;
13202;SDS011;6666;51.626;7.530;2024-01-25T01:22:33;38.08;;;5.97;;
13202;SDS011;6666;51.626;7.530;2024-01-25T01:25:01;34.27;;;6.80;;
13202;SDS011;6666;51.626;7.530;2024-01-25T01:27:29;29.95;;;6.05;;
13202;SDS011;6666;51.626;7.530;2024-01-25T01:29:57;34.47;;;5.80;;
13202;SDS011;6666;51.626;7.530;2024-01-25T01:32:27;30.15;;;5.50;;
13202;SDS011;6666;51.626;7.530;2024-01-25T01:34:56;30.40;;;6.00;;
13202;SDS011;6666;51.626;7.530;2024-01-25T01:37:24;32.10;;;5.50;;
13202;SDS011;6666;51.626;7.530;2024-01-25T01:39:52;32.47;;;5.78;;
13202;SDS011;6666;51.626;7.530;2024-01-25T01:42:22;33.10;;;5.75;;
13202;SDS011;6666;51.626;7.530;2024-01-25T01:44:50;35.67;;;5.95;;
13202;SDS011;6666;51.626;7.530;2024-01-25T01:47:19;35.75;;;6.05;;
13202;SDS011;6666;51.626;7.530;2024-01-25T01:49:49;39.45;;;5.60;;
13202;SDS011;6666;51.626;7.530;2024-01-25T01:52:17;33.45;;;5.90;;
13202;SDS011;6666;51.626;7.530;2024-01-25T01:54:46;29.30;;;5.82;;
13202;SDS011;6666;51.626;7.530;2024-01-25T01:57:16;32.90;;;6.22;;
13202;SDS011;6666;51.626;7.530;2024-01-25T01:59:44;29.60;;;6.20;;
13202;SDS011;6666;51.626;7.530;2024-01-25T02:02:15;33.60;;;6.10;;
13202;SDS011;6666;51.626;7.530;2024-01-25T02:04:44;36.90;;;6.05;;
13202;SDS011;6666;51.626;7.530;2024-01-25T02:07:13;35.72;;;5.95;;
13202;SDS011;6666;51.626;7.530;2024-01-25T02:09:41;35.88;;;6.25;;
13202;SDS011;6666;51.626;7.530;2024-01-25T02:12:14;30.17;;;6.10;;
13202;SDS011;6666;51.626;7.530;2024-01-25T02:14:43;27.10;;;5.50;;
13202;SDS011;6666;51.626;7.530;2024-01-25T02:17:12;23.80;;;5.70;;
13202;SDS011;6666;51.626;7.530;2024-01-25T02:19:40;26.20;;;5.38;;
13202;SDS011;6666;51.626;7.530;2024-01-25T02:22:08;26.98;;;5.00;;
13202;SDS011;6666;51.626;7.530;2024-01-25T02:24:38;33.90;;;6.32;;
13202;SDS011;6666;51.626;7.530;2024-01-25T02:27:06;28.40;;;4.93;;
13202;SDS011;6666;51.626;7.530;2024-01-25T02:29:34;28.48;;;5.60;;
13202;SDS011;6666;51.626;7.530;2024-01-25T02:32:03;28.83;;;5.47;;
13202;SDS011;6666;51.626;7.530;2024-01-25T02:34:32;32.58;;;6.07;;
13202;SDS011;6666;51.626;7.530;2024-01-25T02:37:00;35.28;;;6.18;;
13202;SDS011;6666;51.626;7.530;2024-01-25T02:39:29;34.33;;;6.38;;
13202;SDS011;6666;51.626;7.530;2024-01-25T02:41:59;27.20;;;5.00;;
13202;SDS011;6666;51.626;7.530;2024-01-25T02:44:27;34.05;;;5.60;;
13202;SDS011;6666;51.626;7.530;2024-01-25T02:46:55;29.65;;;5.68;;
13202;SDS011;6666;51.626;7.530;2024-01-25T02:49:23;28.67;;;4.95;;
13202;SDS011;6666;51.626;7.530;2024-01-25T02:51:51;27.65;;;5.70;;
13202;SDS011;6666;51.626;7.530;2024-01-25T02:54:20;30.77;;;5.45;;
13202;SDS011;6666;51.626;7.530;2024-01-25T02:56:48;28.53;;;5.50;;
13202;SDS011;6666;51.626;7.530;2024-01-25T02:59:17;27.95;;;5.82;;
13202;SDS011;6666;51.626;7.530;2024-01-25T03:01:45;35.25;;;5.80;;
13202;SDS011;6666;51.626;7.530;2024-01-25T03:04:14;25.25;;;4.85;;
13202;SDS011;6666;51.626;7.530;2024-01-25T03:06:42;29.35;;;5.32;;
13202;SDS011;6666;51.626;7.530;2024-01-25T03:09:10;35.20;;;5.45;;
13202;SDS011;6666;51.626;7.530;2024-01-25T03:11:39;28.30;;;5.85;;
13202;SDS011;6666;51.626;7.530;2024-01-25T03:14:07;32.42;;;5.18;;
13202;SDS011;6666;51.626;7.530;2024-01-25T03:16:36;27.58;;;5.50;;
13202;SDS011;6666;51.626;7.530;2024-01-25T03:19:04;24.67;;;4.88;;
13202;SDS011;6666;51.626;7.530;2024-01-25T03:21:33;26.85;;;5.55;;
13202;SDS011;6666;51.626;7.530;2024-01-25T03:24:01;31.35;;;5.70;;
13202;SDS011;6666;51.626;7.530;2024-01-25T03:26:30;29.30;;;5.45;;
13202;SDS011;6666;51.626;7.530;2024-01-25T03:28:58;30.83;;;6.88;;
13202;SDS011;6666;51.626;7.530;2024-01-25T03:31:26;29.97;;;4.80;;
13202;SDS011;6666;51.626;7.530;2024-01-25T03:33:56;27.90;;;4.90;;
13202;SDS011;6666;51.626;7.530;2024-01-25T03:36:24;31.85;;;5.00;;
13202;SDS011;6666;51.626;7.530;2024-01-25T03:38:52;24.95;;;5.45;;
13202;SDS011;6666;51.626;7.530;2024-01-25T03:41:20;41.70;;;6.33;;
13202;SDS011;6666;51.626;7.530;2024-01-25T03:43:49;33.30;;;6.15;;
13202;SDS011;6666;51.626;7.530;2024-01-25T03:46:18;39.03;;;6.47;;
13202;SDS011;6666;51.626;7.530;2024-01-25T03:48:46;33.38;;;6.35;;
13202;SDS011;6666;51.626;7.530;2024-01-25T03:51:16;30.50;;;6.03;;
13202;SDS011;6666;51.626;7.530;2024-01-25T03:53:44;37.30;;;6.13;;
13202;SDS011;6666;51.626;7.530;2024-01-25T03:56:12;33.10;;;6.07;;
13202;SDS011;6666;51.626;7.530;2024-01-25T03:58:43;38.60;;;7.05;;
13202;SDS011;6666;51.626;7.530;2024-01-25T04:01:11;44.42;;;6.80;;
13202;SDS011;6666;51.626;7.530;2024-01-25T04:03:40;43.20;;;6.55;;
13202;SDS011;6666;51.626;7.530;2024-01-25T04:06:08;32.42;;;6.32;;
13202;SDS011;6666;51.626;7.530;2024-01-25T04:08:38;42.13;;;6.90;;
13202;SDS011;6666;51.626;7.530;2024-01-25T04:11:06;40.13;;;6.75;;
13202;SDS011;6666;51.626;7.530;2024-01-25T04:13:35;36.50;;;6.60;;
13202;SDS011;6666;51.626;7.530;2024-01-25T04:16:04;34.05;;;7.03;;
13202;SDS011;6666;51.626;7.530;2024-01-25T04:18:32;33.13;;;6.57;;
13202;SDS011;6666;51.626;7.530;2024-01-25T04:21:01;42.10;;;7.10;;
13202;SDS011;6666;51.626;7.530;2024-01-25T04:23:29;36.22;;;5.85;;
13202;SDS011;6666;51.626;7.530;2024-01-25T04:25:58;42.83;;;6.78;;
13202;SDS011;6666;51.626;7.530;2024-01-25T04:28:26;36.08;;;7.40;;
13202;SDS011;6666;51.626;7.530;2024-01-25T04:30:54;41.97;;;7.22;;
13202;SDS011;6666;51.626;7.530;2024-01-25T04:33:22;35.92;;;6.78;;
13202;SDS011;6666;51.626;7.530;2024-01-25T04:35:50;36.03;;;6.60;;
13202;SDS011;6666;51.626;7.530;2024-01-25T04:38:18;26.20;;;6.35;;
13202;SDS011;6666;51.626;7.530;2024-01-25T04:40:46;30.50;;;5.80;;
13202;SDS011;6666;51.626;7.530;2024-01-25T04:43:15;29.38;;;6.10;;
13202;SDS011;6666;51.626;7.530;2024-01-25T04:45:43;37.47;;;7.15;;
13202;SDS011;6666;51.626;7.530;2024-01-25T04:48:12;30.20;;;6.10;;
13202;SDS011;6666;51.626;7.530;2024-01-25T04:50:40;34.00;;;7.43;;
13202;SDS011;6666;51.626;7.530;2024-01-25T04:53:09;37.78;;;6.75;;
13202;SDS011;6666;51.626;7.530;2024-01-25T04:55:37;29.75;;;6.57;;
13202;SDS011;6666;51.626;7.530;2024-01-25T04:58:05;27.97;;;5.87;;
13202;SDS011;6666;51.626;7.530;2024-01-25T05:00:34;38.45;;;6.03;;
13202;SDS011;6666;51.626;7.530;2024-01-25T05:03:05;35.67;;;6.47;;
13202;SDS011;6666;51.626;7.530;2024-01-25T05:05:33;31.65;;;6.22;;
13202;SDS011;6666;51.626;7.530;2024-01-25T05:08:01;38.07;;;6.37;;
13202;SDS011;6666;51.626;7.530;2024-01-25T05:10:29;35.47;;;7.27;;
13202;SDS011;6666;51.626;7.530;2024-01-25T05:12:57;30.97;;;6.30;;
13202;SDS011;6666;51.626;7.530;2024-01-25T05:15:25;37.20;;;6.40;;
13202;SDS011;6666;51.626;7.530;2024-01-25T05:17:55;37.17;;;6.97;;
13202;SDS011;6666;51.626;7.530;2024-01-25T05:20:23;39.67;;;7.80;;
13202;SDS011;6666;51.626;7.530;2024-01-25T05:22:58;36.10;;;7.25;;
13202;SDS011;6666;51.626;7.530;2024-01-25T05:25:26;35.55;;;7.55;;
13202;SDS011;6666;51.626;7.530;2024-01-25T05:27:55;42.33;;;7.80;;
13202;SDS011;6666;51.626;7.530;2024-01-25T05:30:23;40.37;;;7.27;;
13202;SDS011;6666;51.626;7.530;2024-01-25T05:32:52;35.60;;;7.97;;
13202;SDS011;6666;51.626;7.530;2024-01-25T05:35:23;37.50;;;7.88;;
13202;SDS011;6666;51.626;7.530;2024-01-25T05:37:51;33.13;;;6.90;;
13202;SDS011;6666;51.626;7.530;2024-01-25T05:40:19;40.53;;;7.27;;
13202;SDS011;6666;51.626;7.530;2024-01-25T05:42:47;34.03;;;7.67;;
13202;SDS011;6666;51.626;7.530;2024-01-25T05:45:15;37.67;;;7.07;;
13202;SDS011;6666;51.626;7.530;2024-01-25T05:47:46;33.93;;;7.60;;
13202;SDS011;6666;51.626;7.530;2024-01-25T05:50:16;36.83;;;7.33;;
13202;SDS011;6666;51.626;7.530;2024-01-25T05:52:46;34.67;;;7.13;;
13202;SDS011;6666;51.626;7.530;2024-01-25T05:55:14;43.40;;;7.20;;
13202;SDS011;6666;51.626;7.530;2024-01-25T05:57:42;37.83;;;8.05;;
13202;SDS011;6666;51.626;7.530;2024-01-25T06:00:12;33.05;;;7.57;;
13202;SDS011;6666;51.626;7.530;2024-01-25T06:02:45;43.67;;;7.75;;
13202;SDS011;6666;51.626;7.530;2024-01-25T06:05:13;41.65;;;6.63;;
13202;SDS011;6666;51.626;7.530;2024-01-25T06:07:42;42.88;;;8.00;;
13202;SDS011;6666;51.626;7.530;2024-01-25T06:10:12;48.83;;;8.13;;
13202;SDS011;6666;51.626;7.530;2024-01-25T06:12:40;39.70;;;7.70;;
13202;SDS011;6666;51.626;7.530;2024-01-25T06:15:08;45.77;;;8.30;;
13202;SDS011;6666;51.626;7.530;2024-01-25T06:17:37;41.70;;;8.10;;
13202;SDS011;6666;51.626;7.530;2024-01-25T06:20:05;41.55;;;7.63;;
13202;SDS011;6666;51.626;7.530;2024-01-25T06:22:33;32.33;;;6.47;;
13202;SDS011;6666;51.626;7.530;2024-01-25T06:25:01;35.33;;;7.23;;
13202;SDS011;6666;51.626;7.530;2024-01-25T06:27:34;35.15;;;6.70;;
13202;SDS011;6666;51.626;7.530;2024-01-25T06:30:02;31.05;;;6.00;;
13202;SDS011;6666;51.626;7.530;2024-01-25T06:32:31;34.43;;;6.57;;
13202;SDS011;6666;51.626;7.530;2024-01-25T06:34:59;31.73;;;5.53;;
13202;SDS011;6666;51.626;7.530;2024-01-25T06:37:27;33.65;;;6.05;;
13202;SDS011;6666;51.626;7.530;2024-01-25T06:39:56;34.95;;;6.85;;
13202;SDS011;6666;51.626;7.530;2024-01-25T06:42:25;37.25;;;6.07;;
13202;SDS011;6666;51.626;7.530;2024-01-25T06:44:54;33.72;;;6.22;;
13202;SDS011;6666;51.626;7.530;2024-01-25T06:47:23;36.28;;;5.95;;
13202;SDS011;6666;51.626;7.530;2024-01-25T06:49:51;32.22;;;6.93;;
13202;SDS011;6666;51.626;7.530;2024-01-25T06:52:19;33.80;;;6.40;;
13202;SDS011;6666;51.626;7.530;2024-01-25T06:54:47;27.90;;;6.43;;
13202;SDS011;6666;51.626;7.530;2024-01-25T06:57:15;30.25;;;6.47;;
13202;SDS011;6666;51.626;7.530;2024-01-25T06:59:44;34.60;;;6.47;;
13202;SDS011;6666;51.626;7.530;2024-01-25T07:02:13;32.97;;;6.97;;
13202;SDS011;6666;51.626;7.530;2024-01-25T07:04:42;39.13;;;7.03;;
13202;SDS011;6666;51.626;7.530;2024-01-25T07:07:11;34.75;;;7.60;;
13202;SDS011;6666;51.626;7.530;2024-01-25T07:09:39;38.60;;;7.05;;
13202;SDS011;6666;51.626;7.530;2024-01-25T07:12:07;32.92;;;7.15;;
13202;SDS011;6666;51.626;7.530;2024-01-25T07:14:36;38.00;;;7.87;;
13202;SDS011;6666;51.626;7.530;2024-01-25T07:17:04;38.42;;;7.90;;
13202;SDS011;6666;51.626;7.530;2024-01-25T07:19:33;44.83;;;8.82;;
13202;SDS011;6666;51.626;7.530;2024-01-25T07:22:02;46.17;;;8.35;;
13202;SDS011;6666;51.626;7.530;2024-01-25T07:24:30;42.73;;;8.60;;
13202;SDS011;6666;51.626;7.530;2024-01-25T07:26:58;36.42;;;7.70;;
13202;SDS011;6666;51.626;7.530;2024-01-25T07:29:27;38.22;;;8.90;;
13202;SDS011;6666;51.626;7.530;2024-01-25T07:31:55;41.33;;;7.90;;
13202;SDS011;6666;51.626;7.530;2024-01-25T07:34:23;48.50;;;8.73;;
13202;SDS011;6666;51.626;7.530;2024-01-25T07:36:53;40.22;;;7.88;;
13202;SDS011;6666;51.626;7.530;2024-01-25T07:39:21;35.15;;;7.50;;
13202;SDS011;6666;51.626;7.530;2024-01-25T07:41:49;33.33;;;7.78;;
13202;SDS011;6666;51.626;7.530;2024-01-25T07:44:18;40.10;;;7.93;;
13202;SDS011;6666;51.626;7.530;2024-01-25T07:46:46;36.97;;;8.32;;
13202;SDS011;6666;51.626;7.530;2024-01-25T07:49:14;38.33;;;7.50;;
13202;SDS011;6666;51.626;7.530;2024-01-25T07:51:42;49.95;;;8.55;;
13202;SDS011;6666;51.626;7.530;2024-01-25T07:54:13;33.63;;;8.00;;
13202;SDS011;6666;51.626;7.530;2024-01-25T07:56:41;39.30;;;9.05;;
13202;SDS011;6666;51.626;7.530;2024-01-25T07:59:09;41.97;;;7.72;;
13202;SDS011;6666;51.626;7.530;2024-01-25T08:01:37;37.88;;;8.00;;
13202;SDS011;6666;51.626;7.530;2024-01-25T08:04:06;44.85;;;9.45;;
13202;SDS011;6666;51.626;7.530;2024-01-25T08:06:34;42.08;;;7.72;;
13202;SDS011;6666;51.626;7.530;2024-01-25T08:09:02;33.58;;;7.50;;
13202;SDS011;6666;51.626;7.530;2024-01-25T08:11:31;40.92;;;8.65;;
13202;SDS011;6666;51.626;7.530;2024-01-25T08:14:00;38.88;;;7.80;;
13202;SDS011;6666;51.626;7.530;2024-01-25T08:16:30;42.17;;;7.13;;
13202;SDS011;6666;51.626;7.530;2024-01-25T08:18:58;41.72;;;8.65;;
13202;SDS011;6666;51.626;7.530;2024-01-25T08:21:27;40.65;;;7.95;;
13202;SDS011;6666;51.626;7.530;2024-01-25T08:23:55;37.25;;;7.93;;
13202;SDS011;6666;51.626;7.530;2024-01-25T08:26:23;39.88;;;8.70;;
13202;SDS011;6666;51.626;7.530;2024-01-25T08:28:53;38.93;;;7.50;;
13202;SDS011;6666;51.626;7.530;2024-01-25T08:31:21;49.38;;;9.50;;
13202;SDS011;6666;51.626;7.530;2024-01-25T08:33:49;31.37;;;7.20;;
13202;SDS011;6666;51.626;7.530;2024-01-25T08:36:17;37.42;;;7.45;;
13202;SDS011;6666;51.626;7.530;2024-01-25T08:38:46;37.92;;;7.55;;
13202;SDS011;6666;51.626;7.530;2024-01-25T08:41:14;35.73;;;8.03;;
13202;SDS011;6666;51.626;7.530;2024-01-25T08:43:42;41.20;;;7.70;;
13202;SDS011;6666;51.626;7.530;2024-01-25T08:46:14;46.75;;;8.70;;
13202;SDS011;6666;51.626;7.530;2024-01-25T08:48:43;31.50;;;8.15;;
13202;SDS011;6666;51.626;7.530;2024-01-25T08:51:12;34.37;;;8.70;;
13202;SDS011;6666;51.626;7.530;2024-01-25T08:53:40;38.00;;;8.65;;
13202;SDS011;6666;51.626;7.530;2024-01-25T08:56:08;39.05;;;9.13;;
13202;SDS011;6666;51.626;7.530;2024-01-25T08:58:36;37.63;;;9.80;;
13202;SDS011;6666;51.626;7.530;2024-01-25T09:01:04;50.05;;;9.70;;
13202;SDS011;6666;51.626;7.530;2024-01-25T09:03:33;42.42;;;9.63;;
13202;SDS011;6666;51.626;7.530;2024-01-25T09:06:02;44.45;;;9.60;;
13202;SDS011;6666;51.626;7.530;2024-01-25T09:08:33;39.67;;;7.97;;
13202;SDS011;6666;51.626;7.530;2024-01-25T09:11:01;39.40;;;8.63;;
13202;SDS011;6666;51.626;7.530;2024-01-25T09:13:29;43.50;;;9.95;;
13202;SDS011;6666;51.626;7.530;2024-01-25T09:15:58;40.50;;;9.30;;
13202;SDS011;6666;51.626;7.530;2024-01-25T09:18:27;34.67;;;8.65;;
13202;SDS011;6666;51.626;7.530;2024-01-25T09:20:56;43.22;;;8.93;;
13202;SDS011;6666;51.626;7.530;2024-01-25T09:23:24;35.45;;;9.23;;
13202;SDS011;6666;51.626;7.530;2024-01-25T09:25:52;37.78;;;8.20;;
13202;SDS011;6666;51.626;7.530;2024-01-25T09:28:20;37.47;;;8.97;;
13202;SDS011;6666;51.626;7.530;2024-01-25T09:30:49;38.33;;;9.80;;
13202;SDS011;6666;51.626;7.530;2024-01-25T09:33:18;44.87;;;9.70;;
13202;SDS011;6666;51.626;7.530;2024-01-25T09:35:47;41.22;;;8.52;;
13202;SDS011;6666;51.626;7.530;2024-01-25T09:38:17;34.60;;;9.73;;
13202;SDS011;6666;51.626;7.530;2024-01-25T09:40:45;33.88;;;8.25;;
13202;SDS011;6666;51.626;7.530;2024-01-25T09:43:15;36.28;;;8.55;;
13202;SDS011;6666;51.626;7.530;2024-01-25T09:45:44;36.30;;;8.27;;
13202;SDS011;6666;51.626;7.530;2024-01-25T09:48:12;36.92;;;8.90;;
13202;SDS011;6666;51.626;7.530;2024-01-25T09:50:41;46.97;;;7.85;;
13202;SDS011;6666;51.626;7.530;2024-01-25T09:53:11;34.65;;;8.82;;
13202;SDS011;6666;51.626;7.530;2024-01-25T09:55:45;45.15;;;8.70;;
13202;SDS011;6666;51.626;7.530;2024-01-25T09:58:20;38.65;;;8.60;;
13202;SDS011;6666;51.626;7.530;2024-01-25T10:00:48;42.90;;;9.70;;
13202;SDS011;6666;51.626;7.530;2024-01-25T10:03:17;42.03;;;8.50;;
13202;SDS011;6666;51.626;7.530;2024-01-25T10:05:45;31.83;;;8.98;;
13202;SDS011;6666;51.626;7.530;2024-01-25T10:08:14;43.85;;;9.05;;
13202;SDS011;6666;51.626;7.530;2024-01-25T10:10:43;40.00;;;8.60;;
13202;SDS011;6666;51.626;7.530;2024-01-25T10:13:12;40.17;;;8.70;;
13202;SDS011;6666;51.626;7.530;2024-01-25T10:15:41;37.00;;;7.83;;
13202;SDS011;6666;51.626;7.530;2024-01-25T10:18:10;40.03;;;8.50;;
13202;SDS011;6666;51.626;7.530;2024-01-25T10:20:54;34.25;;;8.68;;
13202;SDS011;6666;51.626;7.530;2024-01-25T10:23:23;42.00;;;8.93;;
13202;SDS011;6666;51.626;7.530;2024-01-25T10:25:54;45.55;;;9.02;;
13202;SDS011;6666;51.626;7.530;2024-01-25T10:28:24;39.40;;;8.95;;
13202;SDS011;6666;51.626;7.530;2024-01-25T10:30:55;34.92;;;8.13;;
13202;SDS011;6666;51.626;7.530;2024-01-25T10:33:25;42.28;;;8.80;;
13202;SDS011;6666;51.626;7.530;2024-01-25T10:35:54;36.33;;;8.80;;
13202;SDS011;6666;51.626;7.530;2024-01-25T10:38:28;39.28;;;9.18;;
13202;SDS011;6666;51.626;7.530;2024-01-25T10:41:00;38.90;;;9.30;;
13202;SDS011;6666;51.626;7.530;2024-01-25T10:43:29;33.08;;;9.25;;
13202;SDS011;6666;51.626;7.530;2024-01-25T10:48:36;39.72;;;9.05;;
13202;SDS011;6666;51.626;7.530;2024-01-25T10:51:05;36.55;;;8.13;;
13202;SDS011;6666;51.626;7.530;2024-01-25T10:53:34;40.13;;;8.55;;
13202;SDS011;6666;51.626;7.530;2024-01-25T10:56:04;38.00;;;9.48;;
13202;SDS011;6666;51.626;7.530;2024-01-25T10:58:33;31.07;;;8.30;;
13202;SDS011;6666;51.626;7.530;2024-01-25T11:01:07;37.83;;;10.02;;
13202;SDS011;6666;51.626;7.530;2024-01-25T11:03:42;35.60;;;9.55;;
13202;SDS011;6666;51.626;7.530;2024-01-25T11:06:13;40.45;;;9.27;;
13202;SDS011;6666;51.626;7.530;2024-01-25T11:08:41;42.63;;;10.70;;
13202;SDS011;6666;51.626;7.530;2024-01-25T11:11:11;46.30;;;10.30;;
13202;SDS011;6666;51.626;7.530;2024-01-25T11:13:41;42.33;;;11.13;;
13202;SDS011;6666;51.626;7.530;2024-01-25T11:16:11;39.88;;;9.80;;
13202;SDS011;6666;51.626;7.530;2024-01-25T11:18:47;39.33;;;9.57;;
13202;SDS011;6666;51.626;7.530;2024-01-25T11:21:25;43.23;;;10.03;;
13202;SDS011;6666;51.626;7.530;2024-01-25T11:24:00;37.38;;;10.55;;
13202;SDS011;6666;51.626;7.530;2024-01-25T11:26:31;40.03;;;10.93;;
13202;SDS011;6666;51.626;7.530;2024-01-25T11:29:00;42.80;;;10.90;;
13202;SDS011;6666;51.626;7.530;2024-01-25T11:31:28;45.10;;;10.65;;
13202;SDS011;6666;51.626;7.530;2024-01-25T11:33:57;41.55;;;12.55;;
13202;SDS011;6666;51.626;7.530;2024-01-25T11:36:26;43.30;;;11.60;;
13202;SDS011;6666;51.626;7.530;2024-01-25T11:38:54;42.72;;;11.30;;
13202;SDS011;6666;51.626;7.530;2024-01-25T11:41:24;35.63;;;11.35;;
13202;SDS011;6666;51.626;7.530;2024-01-25T11:43:54;55.30;;;12.30;;
13202;SDS011;6666;51.626;7.530;2024-01-25T11:46:22;41.30;;;10.52;;
13202;SDS011;6666;51.626;7.530;2024-01-25T11:48:51;45.80;;;11.15;;
13202;SDS011;6666;51.626;7.530;2024-01-25T11:51:19;46.28;;;11.90;;
13202;SDS011;6666;51.626;7.530;2024-01-25T11:53:47;46.38;;;12.10;;
13202;SDS011;6666;51.626;7.530;2024-01-25T11:56:16;41.03;;;11.25;;
13202;SDS011;6666;51.626;7.530;2024-01-25T11:58:47;44.80;;;12.38;;
13202;SDS011;6666;51.626;7.530;2024-01-25T12:01:18;38.80;;;12.50;;
13202;SDS011;6666;51.626;7.530;2024-01-25T12:03:48;39.53;;;11.77;;
13202;SDS011;6666;51.626;7.530;2024-01-25T12:06:16;41.17;;;11.85;;
13202;SDS011;6666;51.626;7.530;2024-01-25T12:08:45;40.75;;;11.82;;
13202;SDS011;6666;51.626;7.530;2024-01-25T12:11:14;41.20;;;11.87;;
13202;SDS011;6666;51.626;7.530;2024-01-25T12:13:45;36.75;;;11.07;;
13202;SDS011;6666;51.626;7.530;2024-01-25T12:16:13;40.83;;;11.85;;
13202;SDS011;6666;51.626;7.530;2024-01-25T12:18:43;45.88;;;12.02;;
13202;SDS011;6666;51.626;7.530;2024-01-25T12:21:13;46.60;;;12.97;;
13202;SDS011;6666;51.626;7.530;2024-01-25T12:23:41;41.28;;;12.10;;
13202;SDS011;6666;51.626;7.530;2024-01-25T12:26:10;45.00;;;12.40;;
13202;SDS011;6666;51.626;7.530;2024-01-25T12:28:39;53.17;;;12.75;;
13202;SDS011;6666;51.626;7.530;2024-01-25T12:31:08;36.92;;;11.70;;
13202;SDS011;6666;51.626;7.530;2024-01-25T12:33:36;40.00;;;12.03;;
13202;SDS011;6666;51.626;7.530;2024-01-25T12:36:06;43.90;;;10.50;;
13202;SDS011;6666;51.626;7.530;2024-01-25T12:38:35;38.20;;;11.00;;
13202;SDS011;6666;51.626;7.530;2024-01-25T12:41:03;39.33;;;10.60;;
13202;SDS011;6666;51.626;7.530;2024-01-25T12:43:32;48.13;;;11.67;;
13202;SDS011;6666;51.626;7.530;2024-01-25T12:46:00;42.80;;;10.85;;
13202;SDS011;6666;51.626;7.530;2024-01-25T12:48:43;36.15;;;10.40;;
13202;SDS011;6666;51.626;7.530;2024-01-25T12:51:15;42.90;;;10.40;;
13202;SDS011;6666;51.626;7.530;2024-01-25T12:53:43;40.75;;;10.93;;
13202;SDS011;6666;51.626;7.530;2024-01-25T12:56:12;38.25;;;10.05;;
13202;SDS011;6666;51.626;7.530;2024-01-25T12:58:40;36.00;;;8.95;;
13202;SDS011;6666;51.626;7.530;2024-01-25T13:01:09;39.50;;;9.82;;
13202;SDS011;6666;51.626;7.530;2024-01-25T13:03:37;40.53;;;9.40;;
13202;SDS011;6666;51.626;7.530;2024-01-25T13:06:05;35.30;;;8.73;;
13202;SDS011;6666;51.626;7.530;2024-01-25T13:08:35;32.67;;;8.38;;
13202;SDS011;6666;51.626;7.530;2024-01-25T13:11:03;32.83;;;7.53;;
13202;SDS011;6666;51.626;7.530;2024-01-25T13:13:31;26.30;;;6.65;;
13202;SDS011;6666;51.626;7.530;2024-01-25T13:15:59;28.55;;;6.57;;
13202;SDS011;6666;51.626;7.530;2024-01-25T13:18:28;35.25;;;7.03;;
13202;SDS011;6666;51.626;7.530;2024-01-25T13:20:56;31.73;;;6.30;;
13202;SDS011;6666;51.626;7.530;2024-01-25T13:23:24;36.35;;;7.00;;
13202;SDS011;6666;51.626;7.530;2024-01-25T13:25:54;43.40;;;6.60;;
13202;SDS011;6666;51.626;7.530;2024-01-25T13:28:22;35.30;;;6.97;;
13202;SDS011;6666;51.626;7.530;2024-01-25T13:30:50;35.45;;;7.20;;
13202;SDS011;6666;51.626;7.530;2024-01-25T13:33:20;28.20;;;5.90;;
13202;SDS011;6666;51.626;7.530;2024-01-25T13:35:48;33.53;;;6.43;;
13202;SDS011;6666;51.626;7.530;2024-01-25T13:38:16;33.47;;;6.50;;
13202;SDS011;6666;51.626;7.530;2024-01-25T13:40:45;28.17;;;6.68;;
13202;SDS011;6666;51.626;7.530;2024-01-25T13:43:14;31.70;;;5.30;;
13202;SDS011;6666;51.626;7.530;2024-01-25T13:45:42;26.95;;;5.85;;
13202;SDS011;6666;51.626;7.530;2024-01-25T13:48:10;31.55;;;6.18;;
13202;SDS011;6666;51.626;7.530;2024-01-25T13:50:38;28.00;;;5.77;;
13202;SDS011;6666;51.626;7.530;2024-01-25T13:53:06;31.65;;;6.80;;
13202;SDS011;6666;51.626;7.530;2024-01-25T13:55:34;36.08;;;6.47;;
13202;SDS011;6666;51.626;7.530;2024-01-25T13:58:02;25.20;;;6.43;;
13202;SDS011;6666;51.626;7.530;2024-01-25T14:00:32;27.55;;;6.20;;
13202;SDS011;6666;51.626;7.530;2024-01-25T14:03:02;31.20;;;6.10;;
13202;SDS011;6666;51.626;7.530;2024-01-25T14:05:30;28.70;;;6.22;;
13202;SDS011;6666;51.626;7.530;2024-01-25T14:07:58;29.45;;;6.85;;
13202;SDS011;6666;51.626;7.530;2024-01-25T14:10:27;37.30;;;6.38;;
13202;SDS011;6666;51.626;7.530;2024-01-25T14:12:56;30.60;;;6.60;;
13202;SDS011;6666;51.626;7.530;2024-01-25T14:15:24;32.40;;;6.90;;
13202;SDS011;6666;51.626;7.530;2024-01-25T14:17:54;31.38;;;6.10;;
13202;SDS011;6666;51.626;7.530;2024-01-25T14:20:22;29.83;;;6.40;;
13202;SDS011;6666;51.626;7.530;2024-01-25T14:22:51;30.15;;;6.57;;
13202;SDS011;6666;51.626;7.530;2024-01-25T14:25:19;35.40;;;7.20;;
13202;SDS011;6666;51.626;7.530;2024-01-25T14:27:47;28.63;;;6.32;;
13202;SDS011;6666;51.626;7.530;2024-01-25T14:30:16;33.35;;;7.10;;
13202;SDS011;6666;51.626;7.530;2024-01-25T14:32:45;36.85;;;7.35;;
13202;SDS011;6666;51.626;7.530;2024-01-25T14:35:15;37.03;;;7.15;;
13202;SDS011;6666;51.626;7.530;2024-01-25T14:37:43;31.77;;;6.75;;
13202;SDS011;6666;51.626;7.530;2024-01-25T14:40:11;34.20;;;7.40;;
13202;SDS011;6666;51.626;7.530;2024-01-25T14:43:00;36.08;;;7.28;;
13202;SDS011;6666;51.626;7.530;2024-01-25T14:45:28;39.55;;;7.57;;
13202;SDS011;6666;51.626;7.530;2024-01-25T14:47:57;35.72;;;7.40;;
13202;SDS011;6666;51.626;7.530;2024-01-25T14:50:26;37.33;;;8.15;;
13202;SDS011;6666;51.626;7.530;2024-01-25T14:52:54;34.72;;;7.28;;
13202;SDS011;6666;51.626;7.530;2024-01-25T14:55:22;30.70;;;7.15;;
13202;SDS011;6666;51.626;7.530;2024-01-25T14:57:51;31.95;;;7.32;;